This is the latest recevied weather packets stored in our database for station/object OM7IT-WX. If no packets are shown the sender has not sent any weather packets the latest 1 day(s).
| Time | Temp. | Humidity | Pressure | Rain* | Wind** | Luminosity | Snow |
|---|---|---|---|---|---|---|---|
| 1778071206 | 21.67° C | 36% | 967 hPa | - | - | - | - |
| 1778070305 | 21.67° C | 36% | 967 hPa | - | - | - | - |
| 1778069103 | 21.67° C | 35% | 967 hPa | - | - | - | - |
| 1778064305 | 22.22° C | 36% | 967 hPa | - | - | - | - |
| 1778064004 | 21.67° C | 36% | 967 hPa | - | - | - | - |
| 1778063704 | 22.22° C | 36% | 967 hPa | - | - | - | - |
| 1778063103 | 21.67° C | 36% | 967 hPa | - | - | - | - |
| 1778062507 | 21.67° C | 36% | 967 hPa | - | - | - | - |
| 1778059206 | 20.56° C | 36% | 967 hPa | - | - | - | - |
| 1778058605 | 20.56° C | 36% | 967 hPa | - | - | - | - |
| 1778058008 | 20.56° C | 36% | 967 hPa | - | - | - | - |
| 1778057704 | 20.56° C | 36% | 967 hPa | - | - | - | - |
| 1778056807 | 20.56° C | 36% | 967 hPa | - | - | - | - |
| 1778055605 | 21.11° C | 35% | 967 hPa | - | - | - | - |
| 1778054418 | 21.67° C | 33% | 967 hPa | - | - | - | - |
| 1778053807 | 23.33° C | 30% | 967 hPa | - | - | - | - |
| 1778053508 | 25° C | 29% | 967 hPa | - | - | - | - |
| 1778053206 | 25° C | 28% | 967 hPa | - | - | - | - |
| 1778052004 | 24.44° C | 30% | 967 hPa | - | - | - | - |
| 1778050811 | 23.33° C | 31% | 967 hPa | - | - | - | - |
| 1778050206 | 22.78° C | 31% | 967 hPa | - | - | - | - |
| 1778049605 | 22.22° C | 32% | 967 hPa | - | - | - | - |
| 1778047807 | 19.44° C | 36% | 967 hPa | - | - | - | - |
| 1778047210 | 18.33° C | 38% | 967 hPa | - | - | - | - |
| 1778046605 | 16.11° C | 43% | 967 hPa | - | - | - | - |
* Rain since midnight (hover to see other rain measurements)
** Current wind speed in m/s (hover to see current wind gust speed)